Time;durP1;ratioP1;P1;durP2;ratioP2;P2;SDS_P1;SDS_P2;PMS_P1;PMS_P2;Temp;Humidity;BMP_temperature;BMP_pressure;BME280_temperature;BME280_humidity;BME280_pressure;Samples;Min_cycle;Max_cycle;Signal;HPM_P1;HPM_P2
2021/10/05 00:00:18;;;;;;;0.10;0.10;;;;;;;;;;4959030;28;20043;-89
2021/10/05 00:02:44;;;;;;;0.10;0.10;;;;;;;;;;4959066;28;20042;-90
2021/10/05 00:05:10;;;;;;;0.10;0.10;;;;;;;;;;4959089;28;20061;-89
2021/10/05 00:07:36;;;;;;;0.10;0.10;;;;;;;;;;4959142;28;20050;-89
2021/10/05 00:10:02;;;;;;;0.10;0.10;;;;;;;;;;4959064;28;20118;-89
2021/10/05 00:12:28;;;;;;;0.10;0.10;;;;;;;;;;4975056;28;20050;-89
2021/10/05 00:14:54;;;;;;;0.10;0.10;;;;;;;;;;4959072;28;20046;-89
2021/10/05 00:17:20;;;;;;;0.10;0.10;;;;;;;;;;4975021;28;20042;-89
2021/10/05 00:19:46;;;;;;;0.10;0.10;;;;;;;;;;4960649;28;20046;-89
2021/10/05 00:22:14;;;;;;;0.10;0.10;;;;;;;;;;4981006;28;20432;-89
2021/10/05 00:24:40;;;;;;;0.10;0.10;;;;;;;;;;4982344;28;20045;-89
2021/10/05 00:27:06;;;;;;;0.10;0.10;;;;;;;;;;4982247;28;20124;-89
2021/10/05 00:29:32;;;;;;;0.10;0.10;;;;;;;;;;4982020;28;20087;-90
2021/10/05 00:31:58;;;;;;;0.17;0.17;;;;;;;;;;4998002;28;20038;-89
2021/10/05 00:34:24;;;;;;;0.10;0.10;;;;;;;;;;4981936;28;20038;-89
2021/10/05 00:36:50;;;;;;;0.10;0.10;;;;;;;;;;4982385;28;20038;-90
2021/10/05 00:39:16;;;;;;;0.20;0.20;;;;;;;;;;4981598;28;20489;-89
2021/10/05 00:41:41;;;;;;;0.10;0.10;;;;;;;;;;4981892;28;20042;-89
2021/10/05 00:44:07;;;;;;;0.20;0.20;;;;;;;;;;4981603;28;20042;-90
2021/10/05 00:46:34;;;;;;;0.20;0.20;;;;;;;;;;4981689;28;20124;-89
2021/10/05 00:49:00;;;;;;;0.10;0.10;;;;;;;;;;4981509;28;20129;-90
2021/10/05 00:51:26;;;;;;;0.10;0.10;;;;;;;;;;4981517;28;20089;-90
2021/10/05 00:53:53;;;;;;;0.10;0.10;;;;;;;;;;4981351;28;20038;-89
2021/10/05 00:56:19;;;;;;;0.10;0.10;;;;;;;;;;4981744;28;20038;-89
2021/10/05 00:58:45;;;;;;;0.10;0.10;;;;;;;;;;4981592;28;20045;-89
2021/10/05 01:01:12;;;;;;;0.10;0.10;;;;;;;;;;4997549;28;20124;-89
2021/10/05 01:03:38;;;;;;;0.10;0.10;;;;;;;;;;4981437;28;20125;-88
2021/10/05 01:06:04;;;;;;;0.10;0.10;;;;;;;;;;4981216;28;20081;-89
2021/10/05 01:08:31;;;;;;;0.10;0.10;;;;;;;;;;4996938;28;20042;-89
2021/10/05 01:10:57;;;;;;;0.10;0.10;;;;;;;;;;4981052;28;20048;-90
2021/10/05 01:13:22;;;;;;;0.10;0.10;;;;;;;;;;4981254;28;20414;-89
2021/10/05 01:15:48;;;;;;;0.10;0.10;;;;;;;;;;4980950;28;20034;-89
2021/10/05 01:18:14;;;;;;;0.10;0.10;;;;;;;;;;4997055;28;20048;-89
2021/10/05 01:21:00;;;;;;;0.10;0.10;;;;;;;;;;4977554;28;20104;-89
2021/10/05 01:23:26;;;;;;;0.10;0.10;;;;;;;;;;4977856;28;20132;-89
2021/10/05 01:25:52;;;;;;;0.10;0.10;;;;;;;;;;4977661;28;20046;-89
2021/10/05 01:28:19;;;;;;;0.10;0.10;;;;;;;;;;4993575;28;20105;-89
2021/10/05 01:30:45;;;;;;;0.10;0.10;;;;;;;;;;4993164;28;20082;-88
2021/10/05 01:33:11;;;;;;;0.10;0.10;;;;;;;;;;4976660;28;20035;-89
2021/10/05 01:35:37;;;;;;;0.10;0.10;;;;;;;;;;4976953;28;20048;-89
2021/10/05 01:38:03;;;;;;;0.10;0.10;;;;;;;;;;4977181;28;20042;-89
2021/10/05 01:40:29;;;;;;;0.20;0.20;;;;;;;;;;4961276;28;20125;-89
2021/10/05 01:42:55;;;;;;;0.10;0.10;;;;;;;;;;4977646;28;20469;-89
2021/10/05 01:45:21;;;;;;;0.10;0.10;;;;;;;;;;4993405;28;20112;-89
2021/10/05 01:47:47;;;;;;;0.10;0.10;;;;;;;;;;4977197;28;20050;-90
2021/10/05 01:50:13;;;;;;;0.10;0.10;;;;;;;;;;4976989;28;20070;-90
2021/10/05 01:52:39;;;;;;;0.10;0.10;;;;;;;;;;4961161;28;20048;-89
2021/10/05 01:55:06;;;;;;;0.10;0.10;;;;;;;;;;4977017;28;20490;-89
2021/10/05 01:57:32;;;;;;;0.10;0.10;;;;;;;;;;4993060;28;20034;-89
2021/10/05 01:59:58;;;;;;;0.10;0.10;;;;;;;;;;4977203;28;20398;-90
2021/10/05 02:02:24;;;;;;;0.10;0.10;;;;;;;;;;4960903;28;20088;-88
2021/10/05 02:04:50;;;;;;;0.13;0.13;;;;;;;;;;4976717;28;20050;-89
2021/10/05 02:07:17;;;;;;;0.10;0.10;;;;;;;;;;4976701;28;20056;-89
2021/10/05 02:09:47;;;;;;;0.10;0.10;;;;;;;;;;4977043;28;20066;-89
2021/10/05 02:12:17;;;;;;;0.10;0.10;;;;;;;;;;4961081;28;20046;-89
2021/10/05 02:14:44;;;;;;;0.10;0.10;;;;;;;;;;4976598;28;20100;-89
2021/10/05 02:17:10;;;;;;;0.20;0.20;;;;;;;;;;4976583;28;20081;-89
2021/10/05 02:19:37;;;;;;;0.10;0.10;;;;;;;;;;4976959;28;20046;-89
2021/10/05 02:22:03;;;;;;;0.10;0.10;;;;;;;;;;4979856;28;20046;-89
2021/10/05 02:26:59;;;;;;;0.10;0.10;;;;;;;;;;4979909;28;20089;-88
2021/10/05 02:29:26;;;;;;;0.10;0.10;;;;;;;;;;4995803;28;20049;-89
2021/10/05 02:31:51;;;;;;;0.10;0.10;;;;;;;;;;4979548;28;20100;-88
2021/10/05 02:34:17;;;;;;;0.10;0.10;;;;;;;;;;4979563;28;20401;-89
2021/10/05 02:36:43;;;;;;;0.10;0.10;;;;;;;;;;4979606;28;20034;-89
2021/10/05 02:39:10;;;;;;;0.10;0.10;;;;;;;;;;4979600;28;20377;-89
2021/10/05 02:41:36;;;;;;;0.10;0.10;;;;;;;;;;4979281;28;20046;-89
2021/10/05 02:44:02;;;;;;;0.10;0.10;;;;;;;;;;4979558;28;20037;-89
2021/10/05 02:46:28;;;;;;;0.13;0.13;;;;;;;;;;4979423;28;20088;-89
2021/10/05 02:48:54;;;;;;;0.10;0.10;;;;;;;;;;4979477;28;20085;-89
2021/10/05 02:51:20;;;;;;;0.10;0.10;;;;;;;;;;4979276;28;20397;-89
2021/10/05 02:53:45;;;;;;;0.10;0.10;;;;;;;;;;4995201;28;20034;-89
2021/10/05 02:56:12;;;;;;;0.10;0.10;;;;;;;;;;4979260;28;20048;-89
2021/10/05 02:58:38;;;;;;;0.10;0.10;;;;;;;;;;4979390;28;20038;-89
2021/10/05 03:01:04;;;;;;;0.30;0.30;;;;;;;;;;4979417;28;20088;-89
2021/10/05 03:03:30;;;;;;;0.10;0.10;;;;;;;;;;4979310;28;20049;-89
2021/10/05 03:05:56;;;;;;;0.10;0.10;;;;;;;;;;4978958;28;20152;-90
2021/10/05 03:08:25;;;;;;;0.22;0.22;;;;;;;;;;4979465;28;20049;-89
2021/10/05 03:10:51;;;;;;;0.10;0.10;;;;;;;;;;4979336;28;20184;-89
2021/10/05 03:13:17;;;;;;;0.10;0.10;;;;;;;;;;4978989;28;20517;-90
2021/10/05 03:15:43;;;;;;;0.10;0.10;;;;;;;;;;4994917;28;20496;-90
2021/10/05 03:18:09;;;;;;;0.10;0.10;;;;;;;;;;4979012;28;20065;-89
2021/10/05 03:20:35;;;;;;;0.10;0.10;;;;;;;;;;4975562;28;20073;-91
2021/10/05 03:23:00;;;;;;;0.10;0.10;;;;;;;;;;4943860;28;20050;-89
2021/10/05 03:25:26;;;;;;;0.10;0.10;;;;;;;;;;4975161;28;20046;-89
2021/10/05 03:27:52;;;;;;;0.10;0.10;;;;;;;;;;4959392;28;20387;-89
2021/10/05 03:30:18;;;;;;;0.10;0.10;;;;;;;;;;4959340;28;20046;-89
2021/10/05 03:32:44;;;;;;;0.10;0.10;;;;;;;;;;4943616;28;20138;-89
2021/10/05 03:37:46;;;;;;;0.40;0.40;;;;;;;;;;5419763;23;20050;-88
2021/10/05 03:40:13;;;;;;;0.10;0.10;;;;;;;;;;4975104;28;20525;-88
2021/10/05 03:42:39;;;;;;;0.10;0.10;;;;;;;;;;4943496;28;20034;-88
2021/10/05 03:45:06;;;;;;;0.10;0.10;;;;;;;;;;4975122;28;20486;-87
2021/10/05 03:47:32;;;;;;;0.10;0.10;;;;;;;;;;4975163;28;20070;-88
2021/10/05 03:49:58;;;;;;;0.10;0.10;;;;;;;;;;4943202;28;20117;-88
2021/10/05 03:52:24;;;;;;;0.10;0.10;;;;;;;;;;4974977;28;20043;-88
2021/10/05 03:54:50;;;;;;;0.10;0.10;;;;;;;;;;4959208;28;20125;-88
2021/10/05 03:57:19;;;;;;;0.10;0.10;;;;;;;;;;4964382;28;20065;-88
2021/10/05 03:59:45;;;;;;;0.10;0.10;;;;;;;;;;4949868;28;20049;-89
2021/10/05 04:02:11;;;;;;;0.35;0.35;;;;;;;;;;4981366;28;20112;-89
2021/10/05 04:04:37;;;;;;;0.10;0.10;;;;;;;;;;4965277;28;20046;-89
2021/10/05 04:07:03;;;;;;;0.10;0.10;;;;;;;;;;4981530;28;20046;-89
2021/10/05 04:09:29;;;;;;;0.10;0.10;;;;;;;;;;4949302;28;20121;-89
2021/10/05 04:11:55;;;;;;;0.30;0.30;;;;;;;;;;4981283;28;20073;-88
2021/10/05 04:14:21;;;;;;;0.10;0.10;;;;;;;;;;4965181;28;20141;-88
2021/10/05 04:16:47;;;;;;;0.10;0.10;;;;;;;;;;4949271;28;20136;-88
2021/10/05 04:19:13;;;;;;;0.10;0.10;;;;;;;;;;4965325;28;20489;-88
2021/10/05 04:21:39;;;;;;;0.10;0.10;;;;;;;;;;4949343;28;20478;-89
2021/10/05 04:24:07;;;;;;;0.20;0.20;;;;;;;;;;4981510;28;20129;-89
2021/10/05 04:26:33;;;;;;;0.10;0.10;;;;;;;;;;4981141;28;20084;-88
2021/10/05 04:28:59;;;;;;;0.10;0.10;;;;;;;;;;4965100;28;20434;-90
2021/10/05 04:31:25;;;;;;;0.10;0.10;;;;;;;;;;4981224;28;20041;-90
2021/10/05 04:33:51;;;;;;;0.10;0.10;;;;;;;;;;4981170;28;20070;-90
2021/10/05 04:36:17;;;;;;;0.10;0.10;;;;;;;;;;4965062;28;20427;-90
2021/10/05 04:38:43;;;;;;;0.10;0.10;;;;;;;;;;4981168;28;20107;-89
2021/10/05 04:41:09;;;;;;;0.10;0.10;;;;;;;;;;4948952;28;20099;-90
2021/10/05 04:43:35;;;;;;;0.10;0.10;;;;;;;;;;4981433;28;20038;-89
2021/10/05 04:46:01;;;;;;;0.10;0.10;;;;;;;;;;4948946;28;20485;-89
2021/10/05 04:48:27;;;;;;;0.10;0.10;;;;;;;;;;4981048;28;20042;-89
2021/10/05 04:50:52;;;;;;;0.10;0.10;;;;;;;;;;4981215;28;20042;-90
2021/10/05 04:53:18;;;;;;;0.10;0.10;;;;;;;;;;4980869;28;20142;-90
2021/10/05 04:55:44;;;;;;;0.10;0.10;;;;;;;;;;4980995;28;20486;-90
2021/10/05 04:58:14;;;;;;;0.10;0.10;;;;;;;;;;4981173;28;20072;-90
2021/10/05 05:00:39;;;;;;;0.10;0.10;;;;;;;;;;4981010;28;20068;-89
2021/10/05 05:03:05;;;;;;;0.30;0.30;;;;;;;;;;4981090;28;20439;-89
2021/10/05 05:05:31;;;;;;;0.10;0.10;;;;;;;;;;4948823;28;20458;-89
2021/10/05 05:07:58;;;;;;;0.15;0.15;;;;;;;;;;4977766;28;20068;-89
2021/10/05 05:10:24;;;;;;;0.10;0.10;;;;;;;;;;4978027;28;20094;-89
2021/10/05 05:12:50;;;;;;;0.10;0.10;;;;;;;;;;4945952;28;20431;-89
2021/10/05 05:15:16;;;;;;;0.20;0.20;;;;;;;;;;4977618;28;20038;-89
2021/10/05 05:17:42;;;;;;;0.10;0.10;;;;;;;;;;4961631;28;20046;-88
2021/10/05 05:20:08;;;;;;;0.10;0.10;;;;;;;;;;4977573;28;20180;-89
2021/10/05 05:22:34;;;;;;;0.10;0.10;;;;;;;;;;4977685;28;20049;-89
2021/10/05 05:25:00;;;;;;;0.10;0.10;;;;;;;;;;4977472;28;20043;-89
2021/10/05 05:27:26;;;;;;;0.10;0.10;;;;;;;;;;4977363;28;20411;-89
2021/10/05 05:29:52;;;;;;;0.10;0.10;;;;;;;;;;4977366;28;20399;-88
2021/10/05 05:32:18;;;;;;;0.10;0.10;;;;;;;;;;4977438;28;20397;-89
2021/10/05 05:34:44;;;;;;;0.10;0.10;;;;;;;;;;4945439;28;20441;-89
2021/10/05 05:37:10;;;;;;;0.47;0.47;;;;;;;;;;4977395;28;20047;-89
2021/10/05 05:39:39;;;;;;;0.10;0.10;;;;;;;;;;4961204;28;20061;-89
2021/10/05 05:42:07;;;;;;;0.10;0.10;;;;;;;;;;4961552;28;20050;-89
2021/10/05 05:44:33;;;;;;;0.10;0.10;;;;;;;;;;4976945;28;20438;-89
2021/10/05 05:46:58;;;;;;;0.10;0.10;;;;;;;;;;4977100;28;20046;-89
2021/10/05 05:49:25;;;;;;;0.10;0.10;;;;;;;;;;4945518;28;20042;-89
2021/10/05 05:51:50;;;;;;;0.10;0.10;;;;;;;;;;4976767;28;20471;-89
2021/10/05 05:54:16;;;;;;;0.20;0.20;;;;;;;;;;4976917;28;20045;-89
2021/10/05 05:56:42;;;;;;;0.10;0.10;;;;;;;;;;4977320;28;20390;-88
2021/10/05 05:59:08;;;;;;;0.10;0.10;;;;;;;;;;4945002;28;20129;-87
2021/10/05 06:01:34;;;;;;;0.10;0.10;;;;;;;;;;4976942;28;20038;-87
2021/10/05 06:04:01;;;;;;;0.10;0.10;;;;;;;;;;4976820;28;20038;-88
2021/10/05 06:06:29;;;;;;;0.10;0.10;;;;;;;;;;4976757;28;20154;-87
2021/10/05 06:08:55;;;;;;;0.10;0.10;;;;;;;;;;4944887;28;20038;-86
2021/10/05 06:11:22;;;;;;;0.10;0.10;;;;;;;;;;4976573;28;20065;-87
2021/10/05 06:13:48;;;;;;;0.10;0.10;;;;;;;;;;4960333;28;20125;-86
2021/10/05 06:16:15;;;;;;;0.10;0.10;;;;;;;;;;4976790;28;20508;-87
2021/10/05 06:18:40;;;;;;;0.10;0.10;;;;;;;;;;4976751;28;20038;-87
2021/10/05 06:21:06;;;;;;;0.10;0.10;;;;;;;;;;4976707;28;20461;-88
2021/10/05 06:23:32;;;;;;;0.10;0.10;;;;;;;;;;4944561;28;20502;-88
2021/10/05 06:25:58;;;;;;;0.10;0.10;;;;;;;;;;4976492;28;20039;-90
2021/10/05 06:28:24;;;;;;;0.10;0.10;;;;;;;;;;4976763;28;20070;-89
2021/10/05 06:30:50;;;;;;;0.40;0.40;;;;;;;;;;4976473;28;20085;-90
2021/10/05 06:33:17;;;;;;;0.10;0.10;;;;;;;;;;4944961;28;20041;-90
2021/10/05 06:35:43;;;;;;;0.10;0.10;;;;;;;;;;4976564;28;20486;-89
2021/10/05 06:38:10;;;;;;;0.10;0.10;;;;;;;;;;4976934;28;20124;-92
2021/10/05 06:40:36;;;;;;;0.10;0.10;;;;;;;;;;4960377;28;20047;-91
2021/10/05 06:43:02;;;;;;;0.20;0.20;;;;;;;;;;4944382;28;20146;-89
2021/10/05 06:45:28;;;;;;;0.20;0.20;;;;;;;;;;4943998;28;20042;-87
2021/10/05 06:47:54;;;;;;;0.10;0.10;;;;;;;;;;4976733;28;20422;-92
2021/10/05 06:50:20;;;;;;;0.10;0.10;;;;;;;;;;4960105;28;20125;-91
2021/10/05 06:52:46;;;;;;;0.10;0.10;;;;;;;;;;4944823;28;20449;-94
2021/10/05 06:55:12;;;;;;;0.28;0.28;;;;;;;;;;4945026;28;20042;-96
2021/10/05 06:57:38;;;;;;;0.10;0.10;;;;;;;;;;4944923;28;20093;-93
2021/10/05 07:00:05;;;;;;;0.10;0.10;;;;;;;;;;4944744;28;20042;-96
2021/10/05 07:02:31;;;;;;;0.10;0.10;;;;;;;;;;4946631;28;20470;-94
2021/10/05 07:04:57;;;;;;;0.17;0.17;;;;;;;;;;4979314;28;20050;-93
2021/10/05 07:07:23;;;;;;;0.10;0.10;;;;;;;;;;4977498;28;20053;-96
2021/10/05 07:09:49;;;;;;;0.28;0.28;;;;;;;;;;4977362;28;20089;-96
2021/10/05 07:12:15;;;;;;;0.10;0.10;;;;;;;;;;4951575;28;20034;-96
2021/10/05 07:14:41;;;;;;;0.47;0.20;;;;;;;;;;4946808;28;20065;-96
2021/10/05 07:17:07;;;;;;;0.20;0.10;;;;;;;;;;4945233;28;20046;-91
2021/10/05 07:19:33;;;;;;;0.10;0.10;;;;;;;;;;4976363;28;20053;-92
2021/10/05 07:22:00;;;;;;;0.17;0.17;;;;;;;;;;4944389;28;20046;-90
2021/10/05 07:24:26;;;;;;;0.20;0.20;;;;;;;;;;4975777;28;20132;-91
2021/10/05 07:26:52;;;;;;;0.10;0.10;;;;;;;;;;4944020;28;20038;-91
2021/10/05 07:29:18;;;;;;;0.10;0.10;;;;;;;;;;4955694;28;20133;-91
2021/10/05 07:31:44;;;;;;;0.10;0.10;;;;;;;;;;4941046;28;20050;-90
2021/10/05 07:34:10;;;;;;;0.10;0.10;;;;;;;;;;4959334;28;20038;-91
2021/10/05 07:36:36;;;;;;;0.45;0.45;;;;;;;;;;4959208;28;20038;-90
2021/10/05 07:39:02;;;;;;;0.10;0.10;;;;;;;;;;4975167;28;20050;-87
2021/10/05 07:41:29;;;;;;;0.10;0.10;;;;;;;;;;4975148;28;20034;-90
2021/10/05 07:43:55;;;;;;;0.20;0.20;;;;;;;;;;4959287;28;20070;-89
2021/10/05 07:46:21;;;;;;;0.20;0.20;;;;;;;;;;4975043;28;20077;-88
2021/10/05 07:48:47;;;;;;;0.10;0.10;;;;;;;;;;4959488;28;20042;-91
2021/10/05 07:51:13;;;;;;;0.10;0.10;;;;;;;;;;4975200;28;20097;-90
2021/10/05 07:53:40;;;;;;;0.38;0.38;;;;;;;;;;4975480;28;20040;-90
2021/10/05 07:56:07;;;;;;;0.10;0.10;;;;;;;;;;4975082;28;20038;-90
2021/10/05 07:58:34;;;;;;;0.10;0.10;;;;;;;;;;4943406;28;20049;-91
2021/10/05 08:01:00;;;;;;;0.10;0.10;;;;;;;;;;4975051;28;20045;-90
2021/10/05 08:03:26;;;;;;;0.10;0.10;;;;;;;;;;4943155;28;20038;-92
2021/10/05 08:05:51;;;;;;;0.10;0.10;;;;;;;;;;4975338;28;20055;-93
2021/10/05 08:08:17;;;;;;;0.35;0.20;;;;;;;;;;4975639;28;20148;-91
2021/10/05 08:10:43;;;;;;;0.10;0.10;;;;;;;;;;4975264;28;20046;-92
2021/10/05 08:13:09;;;;;;;0.10;0.10;;;;;;;;;;4943304;28;20074;-89
2021/10/05 08:15:35;;;;;;;0.10;0.10;;;;;;;;;;4975068;28;20398;-89
2021/10/05 08:18:02;;;;;;;0.20;0.20;;;;;;;;;;4943403;28;20550;-91
2021/10/05 08:20:28;;;;;;;0.20;0.20;;;;;;;;;;4975679;28;20046;-90
2021/10/05 08:22:54;;;;;;;0.20;0.20;;;;;;;;;;4943369;28;20509;-89
2021/10/05 08:25:20;;;;;;;0.15;0.15;;;;;;;;;;4974997;28;20580;-88
2021/10/05 08:27:46;;;;;;;0.10;0.10;;;;;;;;;;4974913;28;20222;-88
2021/10/05 08:30:13;;;;;;;0.10;0.10;;;;;;;;;;4942851;28;20046;-89
2021/10/05 08:32:39;;;;;;;0.20;0.20;;;;;;;;;;4942773;28;20035;-93
2021/10/05 08:35:05;;;;;;;0.17;0.17;;;;;;;;;;4959927;28;20450;-90
2021/10/05 08:37:36;;;;;;;0.10;0.10;;;;;;;;;;4961311;28;20511;-94
2021/10/05 08:40:02;;;;;;;0.10;0.10;;;;;;;;;;4943271;28;20137;-88
2021/10/05 08:42:28;;;;;;;0.10;0.10;;;;;;;;;;4976989;28;20057;-91
2021/10/05 08:44:54;;;;;;;0.10;0.10;;;;;;;;;;4947128;28;20038;-93
2021/10/05 08:47:20;;;;;;;0.10;0.10;;;;;;;;;;4979662;28;20053;-89
2021/10/05 08:49:49;;;;;;;0.10;0.10;;;;;;;;;;4946953;28;20413;-91
2021/10/05 08:52:15;;;;;;;0.10;0.10;;;;;;;;;;4948522;28;20034;-94
2021/10/05 08:54:41;;;;;;;0.10;0.10;;;;;;;;;;4947976;28;20364;-94
2021/10/05 08:57:13;;;;;;;0.10;0.10;;;;;;;;;;4950406;28;20447;-93
2021/10/05 08:59:40;;;;;;;0.10;0.10;;;;;;;;;;4979200;28;20105;-90
2021/10/05 09:02:16;;;;;;;0.10;0.10;;;;;;;;;;4946744;28;20046;-90
2021/10/05 09:04:43;;;;;;;0.45;0.30;;;;;;;;;;4979304;28;20077;-90
2021/10/05 09:07:16;;;;;;;0.10;0.10;;;;;;;;;;4978945;28;20133;-88
2021/10/05 09:09:51;;;;;;;0.17;0.17;;;;;;;;;;4979236;28;20469;-92
2021/10/05 09:12:27;;;;;;;0.10;0.10;;;;;;;;;;4981223;28;20042;-90
2021/10/05 09:14:53;;;;;;;0.10;0.10;;;;;;;;;;4962895;28;20449;-91
2021/10/05 09:17:23;;;;;;;0.10;0.10;;;;;;;;;;4980003;28;20113;-93
2021/10/05 09:19:49;;;;;;;0.10;0.10;;;;;;;;;;4992932;28;20046;-93
2021/10/05 09:22:16;;;;;;;0.10;0.10;;;;;;;;;;5001100;28;20071;-89
2021/10/05 09:24:45;;;;;;;0.10;0.10;;;;;;;;;;5002245;28;20061;-88
2021/10/05 09:27:11;;;;;;;0.20;0.20;;;;;;;;;;4970460;28;20054;-89
2021/10/05 09:29:38;;;;;;;0.10;0.10;;;;;;;;;;4986049;28;20050;-88
2021/10/05 09:32:05;;;;;;;0.10;0.10;;;;;;;;;;4998446;28;20076;-92
2021/10/05 09:34:34;;;;;;;0.10;0.10;;;;;;;;;;4946873;28;20038;-94
2021/10/05 09:37:04;;;;;;;0.40;0.40;;;;;;;;;;4980722;28;20058;-93
2021/10/05 09:39:41;;;;;;;0.10;0.10;;;;;;;;;;4978449;28;20042;-91
2021/10/05 09:42:07;;;;;;;0.38;0.38;;;;;;;;;;4946565;28;20048;-93
2021/10/05 09:44:33;;;;;;;0.10;0.10;;;;;;;;;;4946731;28;20046;-92
2021/10/05 09:46:59;;;;;;;0.10;0.10;;;;;;;;;;4946722;28;20045;-92
2021/10/05 09:49:25;;;;;;;0.20;0.20;;;;;;;;;;4978722;28;20138;-91
2021/10/05 09:52:00;;;;;;;0.10;0.10;;;;;;;;;;4946184;28;20080;-95
2021/10/05 09:54:27;;;;;;;0.10;0.10;;;;;;;;;;4978108;28;20108;-93
2021/10/05 09:56:53;;;;;;;0.20;0.20;;;;;;;;;;4977916;28;20104;-89
2021/10/05 09:59:19;;;;;;;0.10;0.10;;;;;;;;;;4962144;28;20061;-89
2021/10/05 10:01:45;;;;;;;0.10;0.10;;;;;;;;;;4946005;28;20038;-92
2021/10/05 10:04:11;;;;;;;0.10;0.10;;;;;;;;;;4946051;28;20042;-94
2021/10/05 10:06:38;;;;;;;0.25;0.25;;;;;;;;;;4946710;28;20046;-94
2021/10/05 10:09:05;;;;;;;0.10;0.10;;;;;;;;;;4961126;28;20054;-90
2021/10/05 10:11:31;;;;;;;0.10;0.10;;;;;;;;;;4961427;28;20057;-90
2021/10/05 10:13:59;;;;;;;0.17;0.17;;;;;;;;;;4961499;28;20120;-90
2021/10/05 10:16:25;;;;;;;0.10;0.10;;;;;;;;;;4977182;28;20038;-89
2021/10/05 10:18:58;;;;;;;0.10;0.10;;;;;;;;;;4977106;28;20034;-89
2021/10/05 10:21:34;;;;;;;0.17;0.17;;;;;;;;;;4945555;28;20466;-88
2021/10/05 10:24:13;;;;;;;0.10;0.10;;;;;;;;;;4944927;28;20062;-90
2021/10/05 10:26:43;;;;;;;0.10;0.10;;;;;;;;;;4976764;28;20398;-89
2021/10/05 10:29:11;;;;;;;0.30;0.30;;;;;;;;;;4945220;28;20040;-91
2021/10/05 10:31:39;;;;;;;0.13;0.13;;;;;;;;;;4945536;28;20129;-91
2021/10/05 10:34:05;;;;;;;0.10;0.10;;;;;;;;;;4946313;28;20046;-93
2021/10/05 10:36:31;;;;;;;0.20;0.20;;;;;;;;;;5007337;23;20141;-94
2021/10/05 10:39:07;;;;;;;0.10;0.10;;;;;;;;;;4960015;28;20050;-93
2021/10/05 10:41:33;;;;;;;;;;;;;;;;;;4958462;28;20121;-90
2021/10/05 10:44:06;;;;;;;0.10;0.10;;;;;;;;;;4957114;28;19918;-93
2021/10/05 10:46:36;;;;;;;0.10;0.10;;;;;;;;;;4957219;28;20073;-91
2021/10/05 10:49:02;;;;;;;0.10;0.10;;;;;;;;;;4942674;28;20047;-90
2021/10/05 10:51:29;;;;;;;0.10;0.10;;;;;;;;;;4927420;28;20042;-93
2021/10/05 10:53:55;;;;;;;0.20;0.20;;;;;;;;;;4942031;28;20049;-93
2021/10/05 10:56:31;;;;;;;0.10;0.10;;;;;;;;;;4925375;28;20117;-94
2021/10/05 10:58:58;;;;;;;0.10;0.10;;;;;;;;;;4941230;28;20133;-93
2021/10/05 11:01:34;;;;;;;0.10;0.10;;;;;;;;;;4926464;28;20106;-94
2021/10/05 11:04:03;;;;;;;0.10;0.10;;;;;;;;;;4941938;28;20042;-93
2021/10/05 11:06:29;;;;;;;0.13;0.13;;;;;;;;;;4940586;28;20042;-93
2021/10/05 11:08:56;;;;;;;0.10;0.10;;;;;;;;;;4925771;28;20102;-94
2021/10/05 11:11:31;;;;;;;0.20;0.20;;;;;;;;;;4944444;28;20098;-94
2021/10/05 11:14:01;;;;;;;0.10;0.10;;;;;;;;;;4960655;28;20035;-93
2021/10/05 11:16:27;;;;;;;0.10;0.10;;;;;;;;;;4945858;28;20043;-94
2021/10/05 11:19:02;;;;;;;0.10;0.10;;;;;;;;;;4944276;28;20042;-94
2021/10/05 11:21:31;;;;;;;0.15;0.15;;;;;;;;;;4928818;28;20489;-93
2021/10/05 11:23:57;;;;;;;0.10;0.10;;;;;;;;;;4927861;28;20034;-92
2021/10/05 11:26:33;;;;;;;0.10;0.10;;;;;;;;;;4941743;28;20189;-95
2021/10/05 11:29:01;;;;;;;0.10;0.10;;;;;;;;;;4941727;28;20053;-92
2021/10/05 11:31:28;;;;;;;0.10;0.10;;;;;;;;;;4941968;28;20117;-92
2021/10/05 11:33:54;;;;;;;0.15;0.15;;;;;;;;;;4926351;28;20047;-93
2021/10/05 11:36:21;;;;;;;0.10;0.10;;;;;;;;;;4925245;28;20659;-94
2021/10/05 11:38:51;;;;;;;0.43;0.30;;;;;;;;;;4925501;28;20070;-92
2021/10/05 11:41:17;;;;;;;0.10;0.10;;;;;;;;;;4957421;28;20598;-93
2021/10/05 11:43:43;;;;;;;0.10;0.10;;;;;;;;;;4925781;28;20537;-93
2021/10/05 11:46:14;;;;;;;0.20;0.20;;;;;;;;;;4925154;28;20106;-92
2021/10/05 11:48:44;;;;;;;0.10;0.10;;;;;;;;;;4941184;28;20042;-93
2021/10/05 11:51:10;;;;;;;0.10;0.10;;;;;;;;;;4941311;28;20038;-92
2021/10/05 11:53:36;;;;;;;0.13;0.13;;;;;;;;;;4957058;28;20430;-93
2021/10/05 11:56:03;;;;;;;0.10;0.10;;;;;;;;;;4925078;28;20054;-92
2021/10/05 11:58:39;;;;;;;0.10;0.10;;;;;;;;;;4940886;28;20039;-92
2021/10/05 12:01:12;;;;;;;0.20;0.20;;;;;;;;;;4956915;28;20049;-93
2021/10/05 12:03:38;;;;;;;0.20;0.20;;;;;;;;;;4925744;28;20045;-93
2021/10/05 12:06:05;;;;;;;0.10;0.10;;;;;;;;;;4941083;28;20042;-92
2021/10/05 12:08:31;;;;;;;0.10;0.10;;;;;;;;;;4956671;28;20435;-93
2021/10/05 12:10:57;;;;;;;0.20;0.20;;;;;;;;;;4941437;28;20090;-93
2021/10/05 12:13:23;;;;;;;0.10;0.10;;;;;;;;;;4925279;28;20050;-94
2021/10/05 12:15:49;;;;;;;0.10;0.10;;;;;;;;;;4956855;28;20471;-93
2021/10/05 12:18:17;;;;;;;0.20;0.20;;;;;;;;;;4943487;28;20050;-93
2021/10/05 12:20:43;;;;;;;0.10;0.10;;;;;;;;;;4928971;28;20124;-93
2021/10/05 12:23:09;;;;;;;0.10;0.10;;;;;;;;;;4928855;28;20078;-93
2021/10/05 12:25:39;;;;;;;0.10;0.10;;;;;;;;;;4944608;28;20051;-92
2021/10/05 12:28:06;;;;;;;0.20;0.20;;;;;;;;;;4944842;28;20418;-93
2021/10/05 12:30:32;;;;;;;0.20;0.20;;;;;;;;;;4944869;28;20578;-94
2021/10/05 12:32:58;;;;;;;0.10;0.10;;;;;;;;;;4944746;28;20078;-93
2021/10/05 12:35:25;;;;;;;0.20;0.20;;;;;;;;;;4928628;28;20042;-95
2021/10/05 12:38:00;;;;;;;0.20;0.20;;;;;;;;;;4944774;28;20051;-93
2021/10/05 12:40:27;;;;;;;0.20;0.20;;;;;;;;;;4960479;28;20089;-93
2021/10/05 12:42:53;;;;;;;0.10;0.10;;;;;;;;;;4944423;28;20047;-93
2021/10/05 12:45:20;;;;;;;0.20;0.20;;;;;;;;;;4944426;28;20099;-93
2021/10/05 12:47:57;;;;;;;0.10;0.10;;;;;;;;;;4944364;28;20049;-94
2021/10/05 12:50:23;;;;;;;0.10;0.10;;;;;;;;;;4927939;28;20042;-93
2021/10/05 12:52:53;;;;;;;0.15;0.15;;;;;;;;;;4928179;28;20130;-93
2021/10/05 12:55:19;;;;;;;0.20;0.20;;;;;;;;;;4943748;28;20169;-92
2021/10/05 12:57:45;;;;;;;0.10;0.10;;;;;;;;;;4944364;28;20406;-94
2021/10/05 13:00:17;;;;;;;0.10;0.10;;;;;;;;;;4944031;28;20047;-93
2021/10/05 13:02:43;;;;;;;0.20;0.20;;;;;;;;;;4944210;28;20038;-92
2021/10/05 13:05:09;;;;;;;0.40;0.40;;;;;;;;;;4943465;28;20042;-92
2021/10/05 13:07:35;;;;;;;0.10;0.10;;;;;;;;;;4944152;28;20039;-92
2021/10/05 13:10:01;;;;;;;0.20;0.20;;;;;;;;;;4943870;28;20047;-91
2021/10/05 13:12:27;;;;;;;0.10;0.10;;;;;;;;;;4944130;28;20039;-92
2021/10/05 13:14:53;;;;;;;0.10;0.10;;;;;;;;;;4928158;28;20142;-92
2021/10/05 13:17:19;;;;;;;0.10;0.10;;;;;;;;;;4943798;28;20046;-93
2021/10/05 13:19:45;;;;;;;0.10;0.10;;;;;;;;;;4959434;28;20046;-93
2021/10/05 13:22:11;;;;;;;0.10;0.10;;;;;;;;;;4943794;28;20085;-93
2021/10/05 13:24:40;;;;;;;0.10;0.10;;;;;;;;;;4927728;28;20407;-91
2021/10/05 13:27:06;;;;;;;0.10;0.10;;;;;;;;;;4928140;28;20101;-92
2021/10/05 13:29:32;;;;;;;0.10;0.10;;;;;;;;;;4926670;28;20043;-92
2021/10/05 13:31:58;;;;;;;0.13;0.13;;;;;;;;;;4927714;28;20598;-92
2021/10/05 13:34:24;;;;;;;0.10;0.10;;;;;;;;;;4958887;28;20344;-92
2021/10/05 13:36:50;;;;;;;0.10;0.10;;;;;;;;;;4927328;28;20138;-92
2021/10/05 13:39:16;;;;;;;0.20;0.20;;;;;;;;;;4928045;28;20047;-93
2021/10/05 13:41:42;;;;;;;0.10;0.10;;;;;;;;;;4943247;28;20562;-92
2021/10/05 13:44:08;;;;;;;0.10;0.10;;;;;;;;;;4959394;28;20042;-92
2021/10/05 13:46:34;;;;;;;0.20;0.20;;;;;;;;;;4943101;28;20041;-93
2021/10/05 13:49:00;;;;;;;0.10;0.10;;;;;;;;;;4927506;28;20031;-93
2021/10/05 13:51:26;;;;;;;0.10;0.10;;;;;;;;;;4942729;28;20387;-93
2021/10/05 13:53:52;;;;;;;0.20;0.20;;;;;;;;;;4943114;28;20051;-93
2021/10/05 13:56:18;;;;;;;0.15;0.15;;;;;;;;;;4958766;28;20102;-91
2021/10/05 13:58:44;;;;;;;0.20;0.20;;;;;;;;;;4927727;28;20051;-91
2021/10/05 14:01:10;;;;;;;0.10;0.10;;;;;;;;;;4958669;28;20085;-92
2021/10/05 14:03:36;;;;;;;0.20;0.20;;;;;;;;;;4942708;28;20042;-92
2021/10/05 14:06:02;;;;;;;0.20;0.20;;;;;;;;;;4942931;28;20042;-92
2021/10/05 14:08:28;;;;;;;0.20;0.20;;;;;;;;;;4927122;28;20405;-93
2021/10/05 14:10:59;;;;;;;0.10;0.10;;;;;;;;;;4958596;28;20075;-92
2021/10/05 14:13:25;;;;;;;0.10;0.10;;;;;;;;;;4958571;28;20487;-93
2021/10/05 14:15:51;;;;;;;0.10;0.10;;;;;;;;;;4926562;28;20039;-93
2021/10/05 14:18:17;;;;;;;0.10;0.10;;;;;;;;;;4942749;28;20164;-93
2021/10/05 14:20:46;;;;;;;0.10;0.10;;;;;;;;;;4942761;28;20074;-92
2021/10/05 14:23:12;;;;;;;0.10;0.10;;;;;;;;;;4926886;28;20038;-93
2021/10/05 14:25:41;;;;;;;0.10;0.10;;;;;;;;;;4926927;28;20106;-93
2021/10/05 14:28:07;;;;;;;0.10;0.10;;;;;;;;;;4942410;28;20121;-92
2021/10/05 14:30:33;;;;;;;0.10;0.10;;;;;;;;;;4942256;28;20134;-93
2021/10/05 14:32:59;;;;;;;0.20;0.20;;;;;;;;;;4926404;28;20129;-92
2021/10/05 14:35:25;;;;;;;0.10;0.10;;;;;;;;;;4942229;28;20411;-93
2021/10/05 14:37:51;;;;;;;0.10;0.10;;;;;;;;;;4926489;28;20403;-93
2021/10/05 14:40:17;;;;;;;0.10;0.10;;;;;;;;;;4926404;28;20055;-93
2021/10/05 14:42:43;;;;;;;0.10;0.10;;;;;;;;;;4942198;28;20125;-92
2021/10/05 14:45:10;;;;;;;0.20;0.20;;;;;;;;;;4926259;28;20126;-92